Time;durP1;ratioP1;P1;durP2;ratioP2;P2;SDS_P1;SDS_P2;PMS_P1;PMS_P2;Temp;Humidity;BMP_temperature;BMP_pressure;BME280_temperature;BME280_humidity;BME280_pressure;Samples;Min_cycle;Max_cycle;Signal;HPM_P1;HPM_P2
2022/07/02 00:00:51;;;;;;;;;;;;;;;15.29;61.64;102076.75;5008274;28;19964;-94
2022/07/02 00:03:23;;;;;;;;;;;;;;;15.23;61.23;102069.88;5011517;28;19928;-94
2022/07/02 00:05:54;;;;;;;;;;;;;;;15.26;60.75;102068.91;5010699;28;19928;-94
2022/07/02 00:08:22;;;;;;;;;;;;;;;15.23;61.55;102072.53;5005789;28;19979;-93
2022/07/02 00:10:48;;;;;;;;;;;;;;;15.21;61.81;102071.75;5009418;28;19921;-93
2022/07/02 00:13:14;;;;;;;;;;;;;;;15.10;60.83;102083.75;5010884;28;20383;-93
2022/07/02 00:15:39;;;;;;;;;;;;;;;15.06;61.03;102075.00;5004805;28;20059;-94
2022/07/02 00:18:04;;;;;;;;;;;;;;;15.09;61.02;102079.34;5009845;28;19913;-92
2022/07/02 00:20:30;;;;;;;;;;;;;;;15.08;61.38;102067.84;5014467;28;20292;-93
2022/07/02 00:22:55;;;;;;;;;;;;;;;14.98;62.71;102069.13;5009140;28;19917;-93
2022/07/02 00:25:21;;;;;;;;;;;;;;;14.85;62.86;102073.19;5005623;28;19920;-92
2022/07/02 00:27:47;;;;;;;;;;;;;;;14.86;61.21;102073.13;5006028;28;19960;-93
2022/07/02 00:30:12;;;;;;;;;;;;;;;14.84;61.70;102077.66;5008448;28;20433;-93
2022/07/02 00:32:38;;;;;;;;;;;;;;;14.85;61.87;102078.50;5009123;28;20397;-92
2022/07/02 00:35:05;;;;;;;;;;;;;;;14.89;62.83;102080.13;5011182;28;20423;-92
2022/07/02 00:37:30;;;;;;;;;;;;;;;14.95;61.59;102071.91;5008177;28;21116;-92
2022/07/02 00:39:56;;;;;;;;;;;;;;;14.93;61.28;102071.09;5009922;28;19920;-92
2022/07/02 00:42:24;;;;;;;;;;;;;;;14.83;61.34;102080.34;5009366;28;20373;-93
2022/07/02 00:44:49;;;;;;;;;;;;;;;14.62;62.99;102085.56;5004702;28;20004;-92
2022/07/02 00:47:15;;;;;;;;;;;;;;;14.43;64.27;102071.16;5001206;28;20516;-93
2022/07/02 00:49:40;;;;;;;;;;;;;;;14.23;64.63;102078.06;5008963;28;20293;-92
2022/07/02 00:52:06;;;;;;;;;;;;;;;14.18;62.60;102069.41;5004872;28;20428;-92
2022/07/02 00:54:32;;;;;;;;;;;;;;;14.27;63.35;102071.72;5007669;28;19920;-92
2022/07/02 00:56:57;;;;;;;;;;;;;;;14.37;62.92;102068.75;5004712;28;20369;-92
2022/07/02 00:59:23;;;;;;;;;;;;;;;14.36;62.94;102073.19;5004321;28;20344;-92
2022/07/02 01:01:49;;;;;;;;;;;;;;;14.38;62.03;102067.81;5006717;28;19924;-91
2022/07/02 01:04:14;;;;;;;;;;;;;;;14.25;62.96;102065.56;5006239;28;20360;-92
2022/07/02 01:06:41;;;;;;;;;;;;;;;14.30;62.43;102068.06;5005332;28;20008;-92
2022/07/02 01:11:53;;;;;;;;;;;;;;;14.22;62.89;102063.06;5012432;28;20272;-92
2022/07/02 01:14:20;;;;;;;;;;;;;;;14.11;62.21;102054.56;5002666;28;20003;-92
2022/07/02 01:16:46;;;;;;;;;;;;;;;13.99;64.67;102063.84;5006856;28;20024;-92
2022/07/02 01:19:16;;;;;;;;;;;;;;;13.90;64.78;102058.00;5009057;28;19939;-92
2022/07/02 01:22:01;;;;;;;;;;;;;;;13.83;63.62;102057.31;5001822;28;20005;-92
2022/07/02 01:24:26;;;;;;;;;;;;;;;13.90;62.79;102063.31;5005816;28;19920;-92
2022/07/02 01:26:51;;;;;;;;;;;;;;;13.94;63.16;102051.63;5008402;28;19914;-92
2022/07/02 01:29:16;;;;;;;;;;;;;;;13.88;65.75;102054.50;5005727;28;19921;-91
2022/07/02 01:31:42;;;;;;;;;;;;;;;13.78;64.76;102054.81;5006628;28;20008;-91
2022/07/02 01:34:07;;;;;;;;;;;;;;;13.83;63.58;102056.44;5008934;28;19967;-92
2022/07/02 01:36:32;;;;;;;;;;;;;;;13.87;64.07;102060.75;5001816;28;20008;-92
2022/07/02 01:38:57;;;;;;;;;;;;;;;13.90;64.56;102063.31;5005206;28;20007;-92
2022/07/02 01:41:41;;;;;;;;;;;;;;;13.92;63.90;102053.47;5008698;28;19978;-92
2022/07/02 01:44:06;;;;;;;;;;;;;;;13.87;64.54;102058.94;5006044;28;20563;-92
2022/07/02 01:46:31;;;;;;;;;;;;;;;13.91;64.92;102059.72;4990853;28;19969;-92
2022/07/02 01:48:57;;;;;;;;;;;;;;;13.92;64.22;102064.13;5005068;28;20410;-92
2022/07/02 01:51:22;;;;;;;;;;;;;;;13.91;64.12;102059.72;5004646;28;19913;-92
2022/07/02 01:53:47;;;;;;;;;;;;;;;13.91;63.41;102060.59;5007387;28;19921;-92
2022/07/02 01:56:12;;;;;;;;;;;;;;;13.78;64.49;102059.28;5005950;28;19920;-91
2022/07/02 01:58:38;;;;;;;;;;;;;;;13.67;65.80;102062.28;5005338;28;20657;-92
2022/07/02 02:01:03;;;;;;;;;;;;;;;13.65;63.99;102058.81;5004435;28;19975;-92
2022/07/02 02:03:28;;;;;;;;;;;;;;;13.57;65.86;102058.22;5005918;28;19948;-91
2022/07/02 02:05:53;;;;;;;;;;;;;;;13.47;64.65;102062.94;5002744;28;19925;-92
2022/07/02 02:08:18;;;;;;;;;;;;;;;13.41;66.38;102055.16;5004593;28;20364;-91
2022/07/02 02:10:44;;;;;;;;;;;;;;;13.48;65.51;102054.06;5008476;28;20328;-92
2022/07/02 02:13:09;;;;;;;;;;;;;;;13.49;65.66;102054.94;5006114;28;19928;-92
2022/07/02 02:15:34;;;;;;;;;;;;;;;13.43;66.69;102058.66;5007906;28;19913;-92
2022/07/02 02:17:59;;;;;;;;;;;;;;;13.35;67.65;102059.81;5006387;28;20420;-91
2022/07/02 02:20:24;;;;;;;;;;;;;;;13.27;68.06;102050.31;5006050;28;19995;-92
2022/07/02 02:22:50;;;;;;;;;;;;;;;13.20;66.57;102056.72;5007221;28;20268;-91
2022/07/02 02:25:15;;;;;;;;;;;;;;;13.31;65.44;102053.75;5007430;28;19955;-92
2022/07/02 02:27:40;;;;;;;;;;;;;;;13.42;66.84;102058.69;5006692;28;19999;-91
2022/07/02 02:30:06;;;;;;;;;;;;;;;13.42;67.03;102066.66;5001277;28;19914;-92
2022/07/02 02:32:31;;;;;;;;;;;;;;;13.38;64.69;102065.03;5006975;28;19975;-91
2022/07/02 02:34:56;;;;;;;;;;;;;;;13.47;67.46;102054.97;5010112;28;19924;-92
2022/07/02 02:37:22;;;;;;;;;;;;;;;13.60;67.43;102059.88;5009204;28;19913;-91
2022/07/02 02:39:47;;;;;;;;;;;;;;;13.70;65.95;102058.66;5007556;28;20325;-91
2022/07/02 02:42:12;;;;;;;;;;;;;;;13.66;66.46;102055.25;5006235;28;20161;-92
2022/07/02 02:44:37;;;;;;;;;;;;;;;13.69;67.34;102060.44;5005804;28;20361;-92
2022/07/02 02:47:03;;;;;;;;;;;;;;;13.77;66.95;102054.88;5010508;28;20017;-91
2022/07/02 02:49:28;;;;;;;;;;;;;;;13.84;66.68;102055.53;5006254;28;19924;-91
2022/07/02 02:51:53;;;;;;;;;;;;;;;13.91;65.78;102057.06;5006510;28;19913;-91
2022/07/02 02:54:18;;;;;;;;;;;;;;;13.96;65.36;102057.78;5004126;28;20308;-92
2022/07/02 02:56:43;;;;;;;;;;;;;;;13.94;66.17;102052.53;5008129;28;20000;-91
2022/07/02 02:59:09;;;;;;;;;;;;;;;13.99;64.00;102065.66;5006528;28;19935;-91
2022/07/02 03:01:34;;;;;;;;;;;;;;;13.99;64.06;102063.84;5003847;28;19921;-92
2022/07/02 03:03:59;;;;;;;;;;;;;;;13.97;67.37;102076.31;5005886;28;19925;-91
2022/07/02 03:06:24;;;;;;;;;;;;;;;13.97;66.52;102071.00;5005416;28;19983;-92
2022/07/02 03:08:49;;;;;;;;;;;;;;;14.06;67.55;102068.94;4999950;28;19972;-92
2022/07/02 03:11:15;;;;;;;;;;;;;;;14.05;66.42;102073.41;5002350;28;19917;-92
2022/07/02 03:13:40;;;;;;;;;;;;;;;13.97;66.45;102071.00;5006559;28;20284;-91
2022/07/02 03:16:07;;;;;;;;;;;;;;;13.94;66.80;102075.53;5005799;28;20324;-91
2022/07/02 03:18:32;;;;;;;;;;;;;;;13.95;66.51;102072.00;5007432;28;19928;-92
2022/07/02 03:20:57;;;;;;;;;;;;;;;13.89;66.16;102072.19;5002200;28;19914;-92
2022/07/02 03:23:22;;;;;;;;;;;;;;;13.88;66.50;102075.78;5006349;28;19921;-92
2022/07/02 03:25:47;;;;;;;;;;;;;;;13.87;65.10;102074.03;5010129;28;19920;-92
2022/07/02 03:28:13;;;;;;;;;;;;;;;13.77;65.98;102077.00;5009802;28;19925;-92
2022/07/02 03:30:38;;;;;;;;;;;;;;;13.75;65.88;102076.16;5010763;28;19962;-92
2022/07/02 03:33:03;;;;;;;;;;;;;;;13.75;66.18;102086.81;5011991;28;20466;-92
2022/07/02 03:35:28;;;;;;;;;;;;;;;13.83;66.49;102088.34;5007909;28;20365;-91
2022/07/02 03:37:53;;;;;;;;;;;;;;;13.78;67.18;102094.69;5009124;28;19917;-92
2022/07/02 03:40:19;;;;;;;;;;;;;;;13.75;67.46;102096.56;5011133;28;19912;-91
2022/07/02 03:42:44;;;;;;;;;;;;;;;13.75;66.32;102096.56;5007771;28;19913;-91
2022/07/02 03:45:09;;;;;;;;;;;;;;;13.75;66.59;102094.78;5007132;28;19972;-91
2022/07/02 03:47:35;;;;;;;;;;;;;;;13.69;67.52;102097.66;5005623;28;20375;-92
2022/07/02 03:50:00;;;;;;;;;;;;;;;13.66;67.23;102094.22;5011053;28;19963;-91
2022/07/02 03:52:25;;;;;;;;;;;;;;;13.68;65.63;102090.59;5010769;28;19959;-91
2022/07/02 03:54:50;;;;;;;;;;;;;;;13.73;65.27;102088.66;5004718;28;20012;-92
2022/07/02 03:57:16;;;;;;;;;;;;;;;13.85;64.77;102098.03;5004725;28;20398;-91
2022/07/02 03:59:41;;;;;;;;;;;;;;;13.87;67.20;102096.16;5010670;28;19953;-91
2022/07/02 04:02:06;;;;;;;;;;;;;;;13.81;65.64;102095.53;5007652;28;19959;-91
2022/07/02 04:04:31;;;;;;;;;;;;;;;13.83;65.37;102098.97;5006080;28;19921;-91
2022/07/02 04:06:57;;;;;;;;;;;;;;;13.79;65.41;102088.44;5008775;28;20365;-92
2022/07/02 04:09:22;;;;;;;;;;;;;;;13.78;65.62;102097.34;5006710;28;19980;-92
2022/07/02 04:11:47;;;;;;;;;;;;;;;13.83;65.71;102104.31;5006681;28;19921;-91
2022/07/02 04:14:13;;;;;;;;;;;;;;;13.90;65.25;102100.53;5008516;28;19917;-92
2022/07/02 04:16:38;;;;;;;;;;;;;;;13.94;64.50;102102.13;5003270;28;20483;-92
2022/07/02 04:19:03;;;;;;;;;;;;;;;13.94;65.43;102104.78;5008707;28;19971;-91
2022/07/02 04:21:29;;;;;;;;;;;;;;;13.91;65.85;102100.47;5010712;28;19917;-91
2022/07/02 04:23:54;;;;;;;;;;;;;;;13.84;68.57;102101.56;5006881;28;19917;-91
2022/07/02 04:26:19;;;;;;;;;;;;;;;13.76;68.15;102103.66;5008795;28;19917;-91
2022/07/02 04:28:44;;;;;;;;;;;;;;;13.75;67.50;102096.56;5005745;28;19990;-92
2022/07/02 04:31:09;;;;;;;;;;;;;;;13.78;66.60;102102.66;5002646;28;19921;-91
2022/07/02 04:33:35;;;;;;;;;;;;;;;13.88;66.20;102103.22;5007999;28;19968;-91
2022/07/02 04:36:00;;;;;;;;;;;;;;;13.99;67.08;102095.75;5008326;28;19913;-91
2022/07/02 04:38:25;;;;;;;;;;;;;;;14.09;66.44;102101.63;5009229;28;20023;-91
2022/07/02 04:40:50;;;;;;;;;;;;;;;14.11;64.96;102104.22;5009402;28;20406;-92
2022/07/02 04:43:16;;;;;;;;;;;;;;;14.15;66.64;102106.72;5008223;28;20404;-91
2022/07/02 04:45:41;;;;;;;;;;;;;;;14.17;66.24;102101.34;5010196;28;20507;-91
2022/07/02 04:48:07;;;;;;;;;;;;;;;14.21;66.26;102101.19;5010595;28;19921;-91
2022/07/02 04:50:32;;;;;;;;;;;;;;;14.30;66.21;102100.84;5002281;28;20272;-91
2022/07/02 04:52:58;;;;;;;;;;;;;;;14.49;65.43;102100.22;5007391;28;19914;-91
2022/07/02 04:55:23;;;;;;;;;;;;;;;14.59;66.84;102096.31;5006929;28;19964;-91
2022/07/02 04:57:48;;;;;;;;;;;;;;;14.69;65.98;102105.72;5008491;28;20003;-91
2022/07/02 05:00:14;;;;;;;;;;;;;;;14.76;65.00;102103.69;5006932;28;20416;-90
2022/07/02 05:02:39;;;;;;;;;;;;;;;14.78;65.71;102107.13;5002108;28;20570;-91
2022/07/02 05:05:04;;;;;;;;;;;;;;;14.80;65.98;102110.63;5009721;28;20410;-91
2022/07/02 05:07:30;;;;;;;;;;;;;;;14.81;65.20;102112.34;5007730;28;19909;-92
2022/07/02 05:09:57;;;;;;;;;;;;;;;14.84;66.43;102104.25;5006981;28;20644;-91
2022/07/02 05:12:23;;;;;;;;;;;;;;;14.88;65.04;102110.34;5009228;28;19913;-91
2022/07/02 05:14:48;;;;;;;;;;;;;;;14.96;65.56;102109.09;5009350;28;19920;-91
2022/07/02 05:17:13;;;;;;;;;;;;;;;15.04;65.24;102108.81;5005655;28;20025;-91
2022/07/02 05:19:38;;;;;;;;;;;;;;;15.12;65.70;102106.75;5002616;28;19924;-91
2022/07/02 05:22:04;;;;;;;;;;;;;;;15.19;65.67;102110.88;5007413;28;19913;-91
2022/07/02 05:24:29;;;;;;;;;;;;;;;15.25;65.93;102110.66;5014909;28;19924;-91
2022/07/02 05:26:54;;;;;;;;;;;;;;;15.32;66.34;102108.63;5008967;28;20028;-91
2022/07/02 05:29:19;;;;;;;;;;;;;;;15.39;66.38;102111.88;5008041;28;19963;-90
2022/07/02 05:31:45;;;;;;;;;;;;;;;15.45;64.64;102109.00;5005665;28;19917;-91
2022/07/02 05:34:10;;;;;;;;;;;;;;;15.49;65.47;102103.47;5004592;28;19964;-91
2022/07/02 05:36:35;;;;;;;;;;;;;;;15.50;64.31;102101.69;5007433;28;19921;-91
2022/07/02 05:39:00;;;;;;;;;;;;;;;15.52;65.50;102105.13;5006690;28;20376;-91
2022/07/02 05:41:25;;;;;;;;;;;;;;;15.55;64.55;102110.34;5003139;28;19914;-91
2022/07/02 05:43:51;;;;;;;;;;;;;;;15.60;65.09;102108.38;5015255;28;19922;-90
2022/07/02 05:46:16;;;;;;;;;;;;;;;15.66;63.03;102116.13;4992500;28;20372;-91
2022/07/02 05:48:41;;;;;;;;;;;;;;;15.74;64.21;102114.03;5005493;28;19928;-91
2022/07/02 05:51:06;;;;;;;;;;;;;;;15.80;63.83;102116.44;5002389;28;19924;-91
2022/07/02 05:53:32;;;;;;;;;;;;;;;15.88;64.52;102118.78;5005967;28;19959;-89
2022/07/02 05:55:57;;;;;;;;;;;;;;;15.92;63.19;102115.06;5006236;28;19917;-92
2022/07/02 05:58:22;;;;;;;;;;;;;;;16.04;65.06;102124.34;5002821;28;20384;-92
2022/07/02 06:00:47;;;;;;;;;;;;;;;16.12;64.16;102122.22;5005400;28;19913;-91
2022/07/02 06:03:12;;;;;;;;;;;;;;;16.21;63.62;102120.94;5005864;28;19957;-91
2022/07/02 06:08:21;;;;;;;;;;;;;;;16.40;63.32;102127.22;5008698;28;19968;-91
2022/07/02 06:10:46;;;;;;;;;;;;;;;16.46;63.50;102124.31;5004874;28;19924;-90
2022/07/02 06:13:14;;;;;;;;;;;;;;;16.53;62.66;102122.22;5007997;28;19963;-90
2022/07/02 06:15:39;;;;;;;;;;;;;;;16.62;62.02;102115.59;5010334;28;20365;-90
2022/07/02 06:18:04;;;;;;;;;;;;;;;16.76;60.57;102122.06;5012120;28;19975;-90
2022/07/02 06:20:30;;;;;;;;;;;;;;;17.02;61.11;102123.56;4999317;28;19963;-90
2022/07/02 06:22:55;;;;;;;;;;;;;;;17.21;59.23;102128.91;5008671;28;19949;-93
2022/07/02 06:25:20;;;;;;;;;;;;;;;17.48;58.87;102120.47;5005779;28;19917;-94
2022/07/02 06:27:45;;;;;;;;;;;;;;;17.68;58.70;102125.72;4994792;28;20254;-93
2022/07/02 06:30:11;;;;;;;;;;;;;;;17.77;58.81;102125.31;5007301;28;19921;-93
2022/07/02 06:32:36;;;;;;;;;;;;;;;17.98;56.72;102130.50;5007710;28;19955;-92
2022/07/02 06:35:02;;;;;;;;;;;;;;;18.19;57.13;102128.56;5008327;28;19913;-92
2022/07/02 06:37:28;;;;;;;;;;;;;;;18.29;55.63;102135.16;4989650;28;19922;-92
2022/07/02 06:39:53;;;;;;;;;;;;;;;18.46;56.29;102139.63;5011628;28;19919;-93
2022/07/02 06:42:26;;;;;;;;;;;;;;;18.49;55.71;102140.34;4991433;28;19928;-93
2022/07/02 06:44:56;;;;;;;;;;;;;;;18.53;56.37;102130.34;5008920;28;19917;-93
2022/07/02 06:47:22;;;;;;;;;;;;;;;18.61;56.91;102126.31;5009708;28;20475;-92
2022/07/02 06:49:50;;;;;;;;;;;;;;;18.75;54.34;102132.78;5006615;28;20046;-92
2022/07/02 06:52:17;;;;;;;;;;;;;;;18.79;55.35;102134.31;4992848;28;19917;-92
2022/07/02 06:54:43;;;;;;;;;;;;;;;18.95;56.00;102131.69;5006282;28;20261;-92
2022/07/02 06:57:08;;;;;;;;;;;;;;;19.01;55.04;102131.34;4990506;28;19974;-92
2022/07/02 06:59:34;;;;;;;;;;;;;;;18.94;53.23;102133.50;4994116;28;19928;-93
2022/07/02 07:01:59;;;;;;;;;;;;;;;18.93;51.40;102136.25;5011431;28;20351;-92
2022/07/02 07:04:27;;;;;;;;;;;;;;;18.90;53.80;102125.72;5011712;28;19917;-93
2022/07/02 07:06:54;;;;;;;;;;;;;;;18.88;50.10;102124.91;5010800;28;19920;-93
2022/07/02 07:09:20;;;;;;;;;;;;;;;18.88;53.42;102133.81;5009400;28;19944;-92
2022/07/02 07:11:45;;;;;;;;;;;;;;;19.00;51.23;102129.63;5012664;28;20352;-92
2022/07/02 07:14:10;;;;;;;;;;;;;;;19.14;52.89;102134.22;5011155;28;19920;-93
2022/07/02 07:16:35;;;;;;;;;;;;;;;19.35;51.62;102130.31;5010426;28;19917;-92
2022/07/02 07:21:26;;;;;;;;;;;;;;;19.44;52.43;102134.28;5010150;28;20328;-92
2022/07/02 07:23:52;;;;;;;;;;;;;;;19.43;50.77;102129.88;4996221;28;19920;-93
2022/07/02 07:26:18;;;;;;;;;;;;;;;19.56;51.76;102137.16;5011387;28;19917;-92
2022/07/02 07:28:43;;;;;;;;;;;;;;;19.71;51.68;102129.22;5011277;28;20404;-92
2022/07/02 07:31:08;;;;;;;;;;;;;;;19.88;51.54;102129.97;5010656;28;19914;-93
2022/07/02 07:33:33;;;;;;;;;;;;;;;20.10;50.47;102129.56;5009651;28;19920;-93
2022/07/02 07:35:59;;;;;;;;;;;;;;;20.71;47.77;102133.03;5010059;28;19928;-92
2022/07/02 07:38:24;;;;;;;;;;;;;;;21.32;47.09;102131.84;4995683;28;20906;-92
2022/07/02 07:40:49;;;;;;;;;;;;;;;22.10;46.83;102126.66;5013447;28;19914;-93
2022/07/02 07:43:15;;;;;;;;;;;;;;;22.73;45.93;102127.69;4995493;28;20008;-93
2022/07/02 07:45:40;;;;;;;;;;;;;;;23.34;45.58;102138.59;5016306;28;20324;-92
2022/07/02 07:48:05;;;;;;;;;;;;;;;23.83;45.15;102130.44;5011702;28;19922;-93
2022/07/02 07:50:30;;;;;;;;;;;;;;;24.34;43.47;102134.63;5008873;28;19959;-93
2022/07/02 07:52:56;;;;;;;;;;;;;;;24.75;42.12;102134.13;5010838;28;19913;-93
2022/07/02 07:55:21;;;;;;;;;;;;;;;25.07;41.75;102136.97;4998416;28;20019;-94
2022/07/02 07:57:46;;;;;;;;;;;;;;;25.48;41.99;102126.47;5011617;28;19917;-94
2022/07/02 08:00:12;;;;;;;;;;;;;;;25.93;42.02;102124.47;5004194;28;19917;-93
2022/07/02 08:02:37;;;;;;;;;;;;;;;26.38;41.60;102124.22;5014229;28;19928;-93
2022/07/02 08:05:02;;;;;;;;;;;;;;;26.04;41.50;102134.41;5024118;28;19910;-94
2022/07/02 08:07:27;;;;;;;;;;;;;;;26.01;40.41;102130.09;5012967;28;19917;-93
2022/07/02 08:09:54;;;;;;;;;;;;;;;26.08;40.38;102127.72;5012072;28;19917;-93
2022/07/02 08:12:22;;;;;;;;;;;;;;;26.65;38.14;102118.25;5014920;28;20348;-91
2022/07/02 08:14:47;;;;;;;;;;;;;;;27.02;36.66;102123.97;5010477;28;19921;-92
2022/07/02 08:17:13;;;;;;;;;;;;;;;27.38;39.80;102127.97;5013457;28;19913;-90
2022/07/02 08:19:38;;;;;;;;;;;;;;;27.79;37.92;102115.16;5008645;28;19921;-92
2022/07/02 08:22:03;;;;;;;;;;;;;;;27.82;36.53;102106.72;5008753;28;19920;-91
2022/07/02 08:24:29;;;;;;;;;;;;;;;27.92;36.96;102109.44;5009007;28;19966;-91
2022/07/02 08:26:54;;;;;;;;;;;;;;;28.20;36.50;102110.41;5005959;28;19921;-91
2022/07/02 08:29:20;;;;;;;;;;;;;;;28.06;30.95;102114.44;5006995;28;20014;-91
2022/07/02 08:31:45;;;;;;;;;;;;;;;28.06;36.00;102110.84;5015247;28;19922;-92
2022/07/02 08:34:11;;;;;;;;;;;;;;;28.56;34.72;102110.63;5010589;28;20340;-90
2022/07/02 08:36:36;;;;;;;;;;;;;;;28.73;34.50;102101.69;5008927;28;19953;-91
2022/07/02 08:39:01;;;;;;;;;;;;;;;28.61;34.14;102097.44;5010284;28;20364;-91
2022/07/02 08:41:26;;;;;;;;;;;;;;;28.92;34.70;102098.03;5012216;28;19917;-91
2022/07/02 08:43:53;;;;;;;;;;;;;;;29.01;34.12;102105.31;5010660;28;19909;-91
2022/07/02 08:46:18;;;;;;;;;;;;;;;29.18;34.08;102104.50;5014475;28;19921;-92
2022/07/02 08:48:44;;;;;;;;;;;;;;;28.91;33.56;102099.91;5009832;28;19922;-90
2022/07/02 08:51:10;;;;;;;;;;;;;;;28.98;34.12;102106.47;5008350;28;19922;-92
2022/07/02 08:53:35;;;;;;;;;;;;;;;29.31;32.18;102100.56;5007416;28;19956;-91
2022/07/02 08:56:01;;;;;;;;;;;;;;;28.91;33.11;102097.19;5009241;28;20004;-91
2022/07/02 08:58:26;;;;;;;;;;;;;;;28.75;34.56;102096.94;5009433;28;20035;-91
2022/07/02 09:00:52;;;;;;;;;;;;;;;28.55;33.07;102093.47;5008239;28;19967;-91
2022/07/02 09:03:18;;;;;;;;;;;;;;;27.94;33.71;102089.28;5008295;28;19917;-95
2022/07/02 09:05:47;;;;;;;;;;;;;;;27.44;34.39;102092.09;4987814;28;20373;-94
2022/07/02 09:08:12;;;;;;;;;;;;;;;27.60;34.13;102079.81;5013513;28;19959;-94
2022/07/02 09:10:38;;;;;;;;;;;;;;;27.06;32.82;102095.56;5008034;28;19925;-95
2022/07/02 09:13:05;;;;;;;;;;;;;;;26.91;35.36;102086.09;5012501;28;20305;-93
2022/07/02 09:15:31;;;;;;;;;;;;;;;26.95;33.29;102082.97;5007836;28;19913;-94
2022/07/02 09:17:57;;;;;;;;;;;;;;;26.93;36.46;102084.94;5012030;28;19952;-95
2022/07/02 09:20:23;;;;;;;;;;;;;;;26.83;35.48;102086.78;5012646;28;19952;-94
2022/07/02 09:22:50;;;;;;;;;;;;;;;26.28;33.68;102078.06;5026501;28;19913;-93
2022/07/02 09:25:16;;;;;;;;;;;;;;;25.44;36.90;102069.84;5016297;28;20337;-93
2022/07/02 09:27:42;;;;;;;;;;;;;;;24.83;37.76;102065.88;4993099;28;19921;-92
2022/07/02 09:30:09;;;;;;;;;;;;;;;24.36;36.87;102065.13;5014662;28;19924;-93
2022/07/02 09:32:39;;;;;;;;;;;;;;;24.74;38.77;102070.19;5019217;28;20281;-94
2022/07/02 09:35:04;;;;;;;;;;;;;;;25.39;38.00;102069.38;5008936;28;19918;-93
2022/07/02 09:37:29;;;;;;;;;;;;;;;25.77;37.96;102061.72;5017069;28;20201;-94
2022/07/02 09:40:01;;;;;;;;;;;;;;;26.39;37.48;102059.00;5021311;28;20269;-94
2022/07/02 09:42:30;;;;;;;;;;;;;;;26.67;36.83;102057.47;5015980;28;19913;-94
2022/07/02 09:44:56;;;;;;;;;;;;;;;26.72;35.85;102065.19;5009426;28;20007;-94
2022/07/02 09:47:48;;;;;;;;;;;;;;;26.94;36.60;102048.66;5005906;28;19967;-94
2022/07/02 09:50:13;;;;;;;;;;;;;;;26.96;36.63;102051.25;4992182;28;19917;-94
2022/07/02 09:52:48;;;;;;;;;;;;;;;27.28;36.25;102033.88;5010155;28;19924;-94
2022/07/02 09:55:20;;;;;;;;;;;;;;;26.85;36.80;102041.34;5008032;28;20365;-94
2022/07/02 09:57:52;;;;;;;;;;;;;;;26.84;37.10;102041.50;5006624;28;19936;-93
2022/07/02 10:00:19;;;;;;;;;;;;;;;27.16;36.15;102036.75;5006543;28;19913;-93
2022/07/02 10:02:48;;;;;;;;;;;;;;;27.75;33.12;102053.13;5010568;28;20377;-93
2022/07/02 10:05:13;;;;;;;;;;;;;;;27.61;32.69;102049.78;5008020;28;19914;-94
2022/07/02 10:07:39;;;;;;;;;;;;;;;26.63;33.98;102041.59;5008502;28;19918;-93
2022/07/02 10:10:04;;;;;;;;;;;;;;;26.17;36.04;102038.34;5012605;28;19925;-94
2022/07/02 10:12:30;;;;;;;;;;;;;;;26.03;36.23;102040.53;5014157;28;19954;-94
2022/07/02 10:14:56;;;;;;;;;;;;;;;26.08;36.54;102033.72;5012288;28;19909;-95
2022/07/02 10:17:23;;;;;;;;;;;;;;;26.28;33.77;102033.81;5018136;28;19909;-91
2022/07/02 10:19:49;;;;;;;;;;;;;;;26.74;33.43;102032.47;5021628;28;20412;-94
2022/07/02 10:22:14;;;;;;;;;;;;;;;27.14;33.40;102027.00;5023532;28;19948;-95
2022/07/02 10:24:41;;;;;;;;;;;;;;;27.07;34.33;102023.97;5021417;28;19948;-95
2022/07/02 10:27:06;;;;;;;;;;;;;;;27.16;34.43;102030.47;5011998;28;19913;-94
2022/07/02 10:29:32;;;;;;;;;;;;;;;26.91;34.58;102021.81;5013654;28;20012;-94
2022/07/02 10:32:01;;;;;;;;;;;;;;;26.66;34.95;102025.00;5009652;28;19913;-93
2022/07/02 10:34:50;;;;;;;;;;;;;;;26.47;35.19;102014.94;5009674;28;19982;-94
2022/07/02 10:37:15;;;;;;;;;;;;;;;26.46;33.90;102015.97;5009313;28;19925;-93
2022/07/02 10:39:44;;;;;;;;;;;;;;;27.00;34.97;102016.53;5003060;28;19921;-93
2022/07/02 10:42:09;;;;;;;;;;;;;;;27.46;31.73;102014.03;4990389;28;19928;-95
2022/07/02 10:44:38;;;;;;;;;;;;;;;27.44;32.34;102009.75;5009091;28;19913;-95
2022/07/02 10:47:04;;;;;;;;;;;;;;;27.21;33.49;102014.59;5006068;28;19917;-93
2022/07/02 10:49:31;;;;;;;;;;;;;;;27.13;34.11;102009.00;4992845;28;20288;-95
2022/07/02 10:51:59;;;;;;;;;;;;;;;27.23;34.24;102006.31;5009652;28;19909;-95
2022/07/02 10:54:33;;;;;;;;;;;;;;;26.92;34.38;102009.09;5014626;28;19936;-94
2022/07/02 10:56:59;;;;;;;;;;;;;;;26.55;34.02;102017.84;4992964;28;20363;-94
2022/07/02 10:59:25;;;;;;;;;;;;;;;26.43;35.47;101999.94;5008772;28;19914;-94
2022/07/02 11:02:01;;;;;;;;;;;;;;;26.32;35.55;102006.28;4988799;28;19921;-94
2022/07/02 11:04:26;;;;;;;;;;;;;;;26.39;34.07;102004.78;5008621;28;20288;-94
2022/07/02 11:07:02;;;;;;;;;;;;;;;26.45;33.72;102000.69;5016338;28;19928;-94
2022/07/02 11:09:27;;;;;;;;;;;;;;;26.49;34.09;102001.25;5010805;28;19975;-94
2022/07/02 11:11:56;;;;;;;;;;;;;;;26.33;33.21;102002.59;5009138;28;20389;-93
2022/07/02 11:14:25;;;;;;;;;;;;;;;26.09;33.51;101996.63;5021253;28;19917;-94
2022/07/02 11:16:51;;;;;;;;;;;;;;;25.94;34.02;101999.69;5010114;28;19924;-94
2022/07/02 11:19:17;;;;;;;;;;;;;;;25.90;34.87;102000.94;4987105;28;19921;-93
2022/07/02 11:21:44;;;;;;;;;;;;;;;25.91;35.31;102001.78;4990071;28;19917;-93
2022/07/02 11:24:12;;;;;;;;;;;;;;;26.05;35.30;102003.31;5009338;28;20007;-93
2022/07/02 11:26:42;;;;;;;;;;;;;;;26.48;34.40;102003.09;5005311;28;20384;-93
2022/07/02 11:29:07;;;;;;;;;;;;;;;27.30;32.61;101994.75;5005322;28;20019;-93
2022/07/02 11:31:35;;;;;;;;;;;;;;;28.21;32.83;101984.28;5004166;28;20020;-92
2022/07/02 11:34:00;;;;;;;;;;;;;;;28.53;31.93;101983.91;4990631;28;20427;-95
2022/07/02 11:36:26;;;;;;;;;;;;;;;28.01;32.42;101985.38;4993852;28;19910;-93
2022/07/02 11:38:51;;;;;;;;;;;;;;;27.77;31.05;101981.28;5009942;28;20418;-92
2022/07/02 11:41:33;;;;;;;;;;;;;;;27.68;32.83;101976.69;5010832;28;19921;-93
2022/07/02 11:43:58;;;;;;;;;;;;;;;27.64;32.10;101976.13;5006819;28;19929;-93
2022/07/02 11:46:28;;;;;;;;;;;;;;;27.92;31.59;101968.94;5012315;28;20438;-93
2022/07/02 11:48:54;;;;;;;;;;;;;;;27.39;30.17;101971.31;5012637;28;19913;-93
2022/07/02 11:51:20;;;;;;;;;;;;;;;27.15;31.94;101975.31;5010547;28;20361;-93
2022/07/02 11:53:55;;;;;;;;;;;;;;;27.31;30.39;101971.16;5003412;28;19975;-92
2022/07/02 11:56:20;;;;;;;;;;;;;;;27.64;31.78;101962.53;5007588;28;19915;-92
2022/07/02 11:58:46;;;;;;;;;;;;;;;27.70;30.95;101966.56;5003985;28;19917;-91
2022/07/02 12:01:17;;;;;;;;;;;;;;;27.38;31.60;101956.88;5005776;28;20016;-93
2022/07/02 12:03:46;;;;;;;;;;;;;;;27.33;31.25;101955.59;5004231;28;19917;-93
2022/07/02 12:06:11;;;;;;;;;;;;;;;27.72;31.40;101961.84;5007378;28;20308;-94
2022/07/02 12:08:37;;;;;;;;;;;;;;;27.56;31.06;101958.81;5014452;28;19917;-93
2022/07/02 12:11:12;;;;;;;;;;;;;;;27.78;30.77;101949.53;5010373;28;19921;-94
2022/07/02 12:13:37;;;;;;;;;;;;;;;27.82;31.75;101959.97;5014273;28;19920;-94
2022/07/02 12:16:03;;;;;;;;;;;;;;;28.08;29.87;101951.16;5013238;28;20283;-96
2022/07/02 12:18:28;;;;;;;;;;;;;;;28.23;31.35;101952.38;4992533;28;19917;-94
2022/07/02 12:20:53;;;;;;;;;;;;;;;28.53;30.55;101944.94;4995143;28;19925;-95
2022/07/02 12:23:19;;;;;;;;;;;;;;;28.34;29.08;101938.59;5008818;28;19942;-96
2022/07/02 12:25:48;;;;;;;;;;;;;;;27.59;30.37;101944.97;5009538;28;19917;-93
2022/07/02 12:31:00;;;;;;;;;;;;;;;27.31;30.63;101931.28;5005474;28;20272;-93
2022/07/02 12:33:30;;;;;;;;;;;;;;;27.20;32.19;101921.44;5003177;28;19917;-93
2022/07/02 12:35:59;;;;;;;;;;;;;;;27.23;32.17;101920.25;5004817;28;19928;-94
2022/07/02 12:38:24;;;;;;;;;;;;;;;27.68;31.43;101923.19;5004669;28;20351;-93
2022/07/02 12:40:57;;;;;;;;;;;;;;;28.40;30.97;101913.53;5013652;28;20008;-94